createdAt,value
2018-06-09T06:24:14.821Z,4.43
2018-06-09T06:26:42.790Z,8.57
2018-06-09T06:29:09.845Z,7.82
2018-06-09T06:31:37.709Z,6.47
2018-06-09T06:34:04.654Z,9.02
2018-06-09T06:36:32.418Z,10.38
2018-06-09T06:39:00.082Z,9.40
2018-06-09T06:41:27.032Z,10.02
2018-06-09T06:43:54.075Z,9.38
2018-06-09T06:46:22.051Z,8.68
2018-06-09T06:48:49.306Z,8.55
2018-06-09T06:51:16.352Z,10.95
2018-06-09T06:53:43.396Z,10.55
2018-06-09T06:56:10.752Z,8.88
2018-06-09T06:58:39.174Z,13.48
2018-06-09T07:01:06.122Z,9.95
2018-06-09T07:03:34.566Z,10.23
2018-06-09T07:06:01.609Z,10.07
2018-06-09T07:08:28.661Z,8.77
2018-06-09T07:10:56.326Z,9.57
2018-06-09T07:13:24.415Z,8.90
2018-06-09T07:15:52.261Z,9.27
2018-06-09T07:18:19.976Z,5.95
2018-06-09T07:20:47.081Z,5.62
2018-06-09T07:23:14.636Z,8.98
2018-06-09T07:25:43.019Z,7.20
2018-06-09T07:28:10.429Z,7.50
2018-06-09T07:30:39.162Z,8.02
2018-06-09T07:33:07.030Z,5.90
2018-06-09T07:35:34.080Z,8.05
2018-06-09T07:38:01.747Z,9.30
2018-06-09T07:40:28.737Z,8.55
2018-06-09T07:42:56.555Z,10.00
2018-06-09T07:45:25.243Z,8.32
2018-06-09T07:47:52.369Z,7.60
2018-06-09T07:50:19.749Z,6.45
2018-06-09T07:52:49.050Z,7.70
2018-06-09T07:55:17.433Z,5.53
2018-06-09T07:57:45.605Z,6.25
2018-06-09T08:00:13.478Z,8.27
2018-06-09T08:02:42.058Z,7.97
2018-06-09T08:05:09.462Z,8.90
2018-06-09T08:07:36.468Z,8.68
2018-06-09T08:10:05.047Z,4.05
2018-06-09T08:12:33.016Z,5.43
2018-06-09T08:15:00.073Z,5.50
2018-06-09T08:17:27.224Z,9.88
2018-06-09T08:19:54.986Z,8.00
2018-06-09T08:22:22.852Z,9.48
2018-06-09T08:24:52.258Z,9.27
2018-06-09T08:27:20.127Z,5.18
2018-06-09T08:29:49.308Z,5.62
2018-06-09T08:32:16.581Z,6.07
2018-06-09T08:34:43.625Z,21.58
2018-06-09T08:37:11.803Z,4.30
2018-06-09T08:39:39.668Z,8.15
2018-06-09T17:51:41.017Z,14.60
2018-06-09T17:54:08.065Z,13.88
2018-06-09T17:56:35.117Z,9.40
2018-06-09T17:59:02.160Z,7.90
2018-06-09T18:01:29.208Z,10.23
2018-06-09T18:03:56.267Z,9.13
2018-06-09T18:06:23.307Z,9.48
2018-06-09T18:11:36.764Z,6.57
2018-06-09T18:14:04.013Z,10.52
2018-06-09T18:16:30.959Z,10.60
2018-06-09T18:18:58.006Z,9.85
2018-06-09T18:21:25.062Z,9.65
2018-06-09T18:23:52.104Z,11.73
2018-06-09T18:26:19.153Z,9.73
2018-06-09T18:28:46.098Z,11.60
2018-06-09T18:31:13.148Z,9.50
2018-06-09T18:33:40.461Z,10.63
2018-06-09T18:36:07.660Z,28.62
2018-06-09T18:38:34.701Z,11.20
2018-06-09T18:41:01.753Z,9.88
2018-06-09T18:43:28.810Z,8.18
2018-06-09T18:45:55.746Z,10.50
2018-06-09T18:48:23.107Z,7.18
2018-06-09T18:50:50.529Z,11.45
2018-06-09T18:53:17.504Z,12.02
2018-06-09T18:55:44.452Z,11.07
2018-06-09T18:58:11.460Z,11.05
2018-06-09T19:00:38.956Z,11.80
2018-06-09T19:03:05.904Z,11.82
2018-06-09T19:05:32.952Z,12.07
2018-06-09T19:08:00.515Z,8.95
2018-06-09T19:10:27.609Z,9.35
2018-06-09T19:12:54.815Z,14.07
2018-06-09T19:15:21.968Z,10.88
2018-06-09T19:17:48.919Z,12.68
2018-06-09T19:20:16.167Z,11.48
2018-06-09T19:22:43.222Z,13.90
2018-06-09T19:25:10.209Z,10.18
2018-06-09T19:27:37.619Z,11.63
2018-06-09T19:30:04.820Z,11.82
2018-06-09T19:32:32.641Z,11.75
2018-06-09T19:34:59.687Z,16.85
2018-06-09T19:37:26.942Z,13.60
2018-06-09T19:39:53.990Z,10.27
2018-06-09T19:42:21.350Z,14.70
2018-06-09T19:44:48.292Z,14.87
2018-06-09T19:47:15.659Z,14.23
2018-06-09T19:49:44.032Z,15.07
2018-06-09T19:52:11.079Z,15.73
2018-06-09T19:54:38.167Z,16.85
2018-06-09T19:57:05.178Z,16.12
2018-06-09T19:59:35.189Z,18.15
2018-06-09T20:02:03.062Z,17.00
2018-06-09T20:04:30.157Z,16.92
2018-06-09T20:06:57.364Z,20.05
2018-06-09T20:09:24.513Z,20.27
2018-06-09T20:11:52.286Z,15.68
2018-06-09T20:14:19.540Z,15.20
2018-06-09T20:16:46.579Z,17.40
2018-06-09T20:19:13.628Z,19.73
2018-06-09T20:21:40.778Z,18.65
2018-06-09T20:24:07.832Z,17.27
2018-06-09T20:26:34.823Z,17.00
2018-06-09T20:29:01.826Z,17.00
2018-06-09T20:31:28.978Z,18.77
2018-06-09T20:33:56.227Z,19.40
2018-06-09T20:36:23.586Z,18.00
2018-06-09T20:38:50.528Z,17.25
2018-06-09T20:41:17.522Z,19.85
2018-06-09T20:43:45.546Z,16.12
2018-06-09T20:46:12.595Z,16.02
2018-06-09T20:48:39.650Z,17.02
2018-06-09T20:51:06.898Z,18.92
2018-06-09T20:53:34.601Z,16.83
2018-06-09T20:56:01.720Z,19.25
2018-06-09T20:58:32.327Z,21.15
2018-06-09T21:01:00.319Z,16.33
2018-06-09T21:03:29.011Z,19.80
2018-06-09T21:08:45.757Z,17.87
2018-06-09T21:11:19.645Z,22.10
2018-06-09T21:13:49.455Z,21.33
2018-06-09T21:16:19.785Z,23.30
2018-06-09T21:18:52.322Z,20.90
2018-06-09T21:21:28.218Z,20.83
2018-06-09T21:23:56.079Z,18.85
2018-06-09T21:26:37.796Z,20.42
2018-06-09T21:29:15.490Z,26.30
2018-06-09T21:31:51.426Z,22.55
2018-06-09T21:34:28.409Z,19.98
2018-06-09T21:36:59.400Z,20.60
2018-06-09T21:39:30.698Z,24.20
2018-06-09T21:41:58.668Z,21.58
2018-06-09T21:44:26.228Z,27.80
2018-06-09T21:46:57.989Z,28.98
2018-06-09T21:49:25.039Z,29.23
2018-06-09T21:51:54.439Z,26.52
2018-06-09T21:54:22.658Z,24.70
2018-06-09T21:56:57.913Z,22.70
2018-06-09T21:59:25.625Z,22.05
2018-06-09T22:01:59.020Z,23.58
2018-06-09T22:04:35.682Z,22.58
2018-06-09T22:07:04.380Z,23.62
2018-06-09T22:09:35.328Z,26.62
2018-06-09T22:12:04.828Z,23.95
2018-06-09T22:14:32.796Z,25.60
2018-06-09T22:17:01.791Z,24.20
2018-06-09T22:22:14.669Z,26.12
2018-06-09T22:24:45.592Z,27.90
2018-06-09T22:30:03.421Z,26.67
2018-06-09T22:32:32.525Z,28.75
2018-06-09T22:35:06.608Z,23.52
2018-06-09T22:37:52.914Z,26.67
2018-06-09T22:40:24.485Z,30.08
2018-06-09T22:45:32.926Z,23.45
2018-06-09T22:48:08.469Z,24.65
2018-06-09T22:50:39.205Z,28.65
2018-06-09T22:53:28.524Z,24.23
2018-06-09T23:01:48.883Z,23.87
2018-06-09T23:32:05.500Z,26.25
2018-06-09T23:43:09.375Z,19.90
